createdAt,value
2017-02-16T00:01:04.766Z,0
2017-02-16T00:03:08.680Z,0
2017-02-16T00:05:20.906Z,0
2017-02-16T00:07:20.524Z,0
2017-02-16T00:09:24.178Z,0
2017-02-16T00:11:38.576Z,0
2017-02-16T00:13:37.635Z,0
2017-02-16T00:15:40.810Z,0
2017-02-16T00:17:38.043Z,0
2017-02-16T00:19:41.040Z,0
2017-02-16T00:21:50.935Z,0
2017-02-16T00:24:18.370Z,0
2017-02-16T00:26:12.311Z,0
2017-02-16T00:28:25.402Z,0
2017-02-16T00:30:39.728Z,0
2017-02-16T00:32:39.250Z,0
2017-02-16T00:34:33.087Z,0
2017-02-16T00:36:34.279Z,0
2017-02-16T00:38:35.032Z,0
2017-02-16T00:40:39.901Z,0
2017-02-16T00:42:39.607Z,0
2017-02-16T00:44:46.086Z,0
2017-02-16T00:46:43.446Z,0
2017-02-16T00:48:41.866Z,0
2017-02-16T00:50:47.864Z,0
2017-02-16T00:52:46.957Z,0
2017-02-16T00:55:01.428Z,0
2017-02-16T00:56:59.661Z,0
2017-02-16T00:59:08.846Z,0
2017-02-16T01:01:10.798Z,0
2017-02-16T01:03:19.032Z,0
2017-02-16T01:05:26.414Z,0
2017-02-16T01:07:24.718Z,0
2017-02-16T01:09:24.209Z,0
2017-02-16T01:11:28.360Z,0
2017-02-16T01:13:38.505Z,0
2017-02-16T01:15:37.002Z,0
2017-02-16T01:17:49.002Z,0
2017-02-16T01:19:49.241Z,0
2017-02-16T01:22:04.350Z,0
2017-02-16T01:24:02.370Z,0
2017-02-16T01:26:13.077Z,0
2017-02-16T01:28:17.703Z,0
2017-02-16T01:30:28.987Z,0
2017-02-16T01:32:28.386Z,0
2017-02-16T01:34:32.478Z,0
2017-02-16T01:36:31.889Z,0
2017-02-16T01:38:34.477Z,0
2017-02-16T01:40:39.615Z,0
2017-02-16T01:42:47.014Z,0
2017-02-16T01:44:39.508Z,0
2017-02-16T01:46:37.777Z,0
2017-02-16T01:48:47.460Z,0
2017-02-16T01:50:56.653Z,0
2017-02-16T01:53:07.268Z,0
2017-02-16T01:55:09.781Z,0
2017-02-16T01:57:10.380Z,0
2017-02-16T01:59:25.909Z,0
2017-02-16T02:01:29.495Z,0
2017-02-16T02:03:37.467Z,0
2017-02-16T02:05:39.551Z,0
2017-02-16T02:07:45.438Z,0
2017-02-16T02:09:37.790Z,0
2017-02-16T02:11:49.964Z,0
2017-02-16T02:13:47.250Z,0
2017-02-16T02:15:39.554Z,0
2017-02-16T02:17:36.823Z,0
2017-02-16T02:19:34.093Z,0
2017-02-16T02:21:36.592Z,0
2017-02-16T02:23:38.881Z,0
2017-02-16T02:25:41.630Z,0
2017-02-16T02:27:44.276Z,0
2017-02-16T02:29:46.534Z,0
2017-02-16T02:31:38.869Z,0
2017-02-16T02:33:31.259Z,0
2017-02-16T02:35:19.460Z,0
2017-02-16T02:37:21.942Z,0
2017-02-16T02:39:24.326Z,0
2017-02-16T02:41:21.614Z,0
2017-02-16T02:43:18.958Z,0
2017-02-16T02:45:06.591Z,0
2017-02-16T02:47:13.900Z,0
2017-02-16T02:49:06.470Z,0
2017-02-16T02:51:03.837Z,0
2017-02-16T02:53:06.126Z,0
2017-02-16T02:55:08.468Z,0
2017-02-16T02:57:05.852Z,0
2017-02-16T02:59:03.135Z,0
2017-02-16T03:01:10.702Z,0
2017-02-16T03:03:08.245Z,0
2017-02-16T03:05:05.639Z,0
2017-02-16T03:07:02.999Z,0
2017-02-16T03:09:00.478Z,0
2017-02-16T03:10:53.062Z,0
2017-02-16T03:12:40.503Z,0
2017-02-16T03:14:42.740Z,0
2017-02-16T03:16:40.010Z,0
2017-02-16T03:18:42.371Z,0
2017-02-16T03:20:49.647Z,0
2017-02-16T03:23:01.961Z,0
2017-02-16T03:24:56.240Z,0
2017-02-16T03:26:43.554Z,0
2017-02-16T03:28:46.001Z,0
2017-02-16T03:30:33.392Z,0
2017-02-16T03:32:25.847Z,0
2017-02-16T03:34:23.145Z,0
2017-02-16T03:36:35.573Z,0
2017-02-16T03:38:32.801Z,0
2017-02-16T03:40:35.114Z,0
2017-02-16T03:42:42.519Z,0
2017-02-16T03:44:39.887Z,0
2017-02-16T03:46:27.240Z,0
2017-02-16T03:48:19.574Z,0
2017-02-16T03:50:17.051Z,0
2017-02-16T03:52:09.421Z,0
2017-02-16T03:54:16.792Z,0
2017-02-16T03:56:24.105Z,0
2017-02-16T03:58:26.318Z,0
2017-02-16T04:00:28.806Z,0
2017-02-16T04:02:31.136Z,0
2017-02-16T04:04:43.555Z,0
2017-02-16T04:06:45.784Z,0
2017-02-16T04:08:38.077Z,0
2017-02-16T04:10:45.584Z,0
2017-02-16T04:12:43.649Z,0
2017-02-16T04:14:46.131Z,0
2017-02-16T04:16:43.462Z,0
2017-02-16T04:18:45.685Z,0
2017-02-16T04:20:48.050Z,0
2017-02-16T04:22:55.406Z,0
2017-02-16T04:24:52.661Z,0
2017-02-16T04:26:50.051Z,0
2017-02-16T04:28:47.361Z,0
2017-02-16T04:30:49.570Z,0
2017-02-16T04:32:51.801Z,0
2017-02-16T04:34:44.506Z,0
2017-02-16T04:36:47.486Z,0
2017-02-16T04:38:39.733Z,0
2017-02-16T04:40:37.111Z,0
2017-02-16T04:42:24.444Z,0
2017-02-16T04:44:21.691Z,0
2017-02-16T04:46:29.363Z,0
2017-02-16T04:48:26.800Z,0
2017-02-16T04:50:19.061Z,0
2017-02-16T04:52:16.415Z,0
2017-02-16T04:54:18.622Z,0
2017-02-16T04:56:21.025Z,0
2017-02-16T04:58:18.327Z,0
2017-02-16T05:00:15.528Z,0
2017-02-16T05:02:22.823Z,0
2017-02-16T05:04:20.165Z,0
2017-02-16T05:06:12.592Z,0
2017-02-16T05:08:04.957Z,0
2017-02-16T05:09:52.325Z,0
2017-02-16T05:11:59.812Z,0
2017-02-16T05:14:02.223Z,0
2017-02-16T05:15:59.684Z,0
2017-02-16T05:17:51.918Z,0
2017-02-16T05:19:44.213Z,0
2017-02-16T05:21:51.695Z,0
2017-02-16T05:23:49.048Z,0
2017-02-16T05:25:56.316Z,0
2017-02-16T05:27:48.575Z,0
2017-02-16T05:29:50.869Z,0
2017-02-16T05:31:53.297Z,0
2017-02-16T05:33:50.765Z,0
2017-02-16T05:35:48.325Z,0
2017-02-16T05:37:45.629Z,0
2017-02-16T05:39:38.029Z,0
2017-02-16T05:41:25.470Z,0
2017-02-16T05:43:27.691Z,0
2017-02-16T05:45:19.989Z,0
2017-02-16T05:47:17.382Z,0
2017-02-16T05:49:14.671Z,4
2017-02-16T05:51:11.942Z,4
2017-02-16T05:53:04.197Z,4
2017-02-16T05:55:06.935Z,4
2017-02-16T05:57:14.652Z,8
2017-02-16T05:59:17.021Z,12
2017-02-16T06:01:24.672Z,16
2017-02-16T06:03:22.182Z,20
2017-02-16T06:05:19.519Z,32
2017-02-16T06:07:16.927Z,44
2017-02-16T06:09:09.522Z,56
2017-02-16T06:11:11.747Z,76
2017-02-16T06:12:59.129Z,96
2017-02-16T06:14:51.613Z,120
2017-02-16T06:16:53.803Z,152
2017-02-16T06:19:01.220Z,192
2017-02-16T06:21:04.304Z,232
2017-02-16T06:23:07.001Z,280
2017-02-16T06:25:09.567Z,332
2017-02-16T06:27:07.551Z,384
2017-02-16T06:29:10.257Z,444
2017-02-16T06:31:02.999Z,500
2017-02-16T06:33:00.401Z,556
2017-02-16T06:35:20.484Z,636
2017-02-16T06:37:35.236Z,700
2017-02-16T06:39:38.037Z,768
2017-02-16T06:41:40.342Z,836
2017-02-16T06:43:37.609Z,900
2017-02-16T06:45:40.021Z,968
2017-02-16T06:47:42.402Z,1036
2017-02-16T06:49:54.884Z,1108
2017-02-16T06:51:57.217Z,1176
2017-02-16T06:53:59.485Z,1236
2017-02-16T06:55:51.892Z,1292
2017-02-16T06:57:44.295Z,1348
2017-02-16T06:59:51.564Z,1416
2017-02-16T07:01:53.792Z,1472
2017-02-16T07:04:05.992Z,1540
2017-02-16T07:06:08.255Z,1604
2017-02-16T07:08:00.979Z,1656
2017-02-16T07:10:03.669Z,1708
2017-02-16T07:12:01.051Z,1764
2017-02-16T07:13:58.387Z,1812
2017-02-16T07:16:05.739Z,1876
2017-02-16T07:18:08.075Z,1940
2017-02-16T07:20:05.449Z,1988
2017-02-16T07:22:12.937Z,2044
2017-02-16T07:24:10.243Z,2104
2017-02-16T07:25:57.743Z,2152
2017-02-16T07:27:50.105Z,2192
2017-02-16T07:29:52.439Z,2236
2017-02-16T07:31:44.879Z,2280
2017-02-16T07:33:37.299Z,2320
2017-02-16T07:35:29.607Z,2372
2017-02-16T07:37:37.036Z,2416
2017-02-16T07:39:44.403Z,2464
2017-02-16T07:41:31.703Z,2500
2017-02-16T07:43:24.199Z,2532
2017-02-16T07:45:32.265Z,2520
2017-02-16T07:47:39.696Z,2564
2017-02-16T07:49:37.027Z,2584
2017-02-16T07:51:39.377Z,2612
2017-02-16T07:53:26.942Z,2648
2017-02-16T07:55:24.487Z,2680
2017-02-16T07:57:16.834Z,2716
2017-02-16T07:59:19.350Z,2768
2017-02-16T08:01:17.416Z,2804
2017-02-16T08:03:21.857Z,2852
2017-02-16T08:05:14.878Z,2888
2017-02-16T08:07:17.129Z,2916
2017-02-16T08:09:22.980Z,2944
2017-02-16T08:11:25.743Z,2968
2017-02-16T08:13:33.158Z,3000
2017-02-16T08:15:36.113Z,3040
2017-02-16T08:17:33.353Z,3080
2017-02-16T08:19:25.828Z,3128
2017-02-16T08:21:23.629Z,3172
2017-02-16T08:23:15.989Z,3220
2017-02-16T08:25:23.286Z,3264
2017-02-16T08:27:30.597Z,3300
2017-02-16T08:29:32.916Z,3324
2017-02-16T08:31:35.476Z,3344
2017-02-16T08:33:37.779Z,3364
2017-02-16T08:35:45.059Z,3384
2017-02-16T08:37:52.426Z,3404
2017-02-16T08:39:44.719Z,3428
2017-02-16T08:41:37.024Z,3464
2017-02-16T08:43:29.503Z,3496
2017-02-16T08:45:26.998Z,3528
2017-02-16T08:47:29.233Z,3568
2017-02-16T08:49:21.538Z,3600
2017-02-16T08:51:18.990Z,3636
2017-02-16T08:53:16.407Z,3684
2017-02-16T08:55:18.960Z,3728
2017-02-16T08:57:16.226Z,3772
2017-02-16T08:59:08.538Z,3816
2017-02-16T09:01:10.921Z,3876
2017-02-16T09:03:18.338Z,3932
2017-02-16T09:05:15.636Z,4000
2017-02-16T09:07:13.099Z,4060
2017-02-16T09:09:20.347Z,4116
2017-02-16T09:11:07.839Z,4156
2017-02-16T09:13:05.317Z,4220
2017-02-16T09:15:02.747Z,4312
2017-02-16T09:17:00.097Z,4428
2017-02-16T09:18:52.522Z,4536
2017-02-16T09:20:39.852Z,16576
2017-02-16T09:22:37.238Z,48512
2017-02-16T09:24:35.490Z,40224
2017-02-16T09:26:27.973Z,38368
2017-02-16T09:28:21.836Z,36800
2017-02-16T09:30:19.211Z,41088
2017-02-16T09:32:29.418Z,40032
2017-02-16T09:34:21.783Z,48256
2017-02-16T09:36:29.156Z,45152
2017-02-16T09:38:31.389Z,46496
2017-02-16T09:40:28.842Z,43680
2017-02-16T09:42:36.119Z,32416
2017-02-16T09:44:38.538Z,29632
2017-02-16T09:46:40.936Z,31488
2017-02-16T09:48:38.455Z,31680
2017-02-16T09:50:20.815Z,32800
2017-02-16T09:52:18.404Z,31840
2017-02-16T09:54:20.819Z,31040
2017-02-16T09:56:08.231Z,29344
2017-02-16T09:58:00.762Z,27872
2017-02-16T09:59:53.036Z,27648
2017-02-16T10:01:55.352Z,28960
2017-02-16T10:03:57.668Z,26656
2017-02-16T10:06:00.220Z,27488
2017-02-16T10:07:57.817Z,27872
2017-02-16T10:09:45.329Z,30208
2017-02-16T10:11:47.701Z,25632
2017-02-16T10:13:45.054Z,25088
2017-02-16T10:15:42.368Z,24832
2017-02-16T10:17:29.796Z,23616
2017-02-16T10:19:32.347Z,22848
2017-02-16T10:21:35.621Z,22976
2017-02-16T10:23:13.182Z,23040
2017-02-16T10:25:05.772Z,23232
2017-02-16T10:27:09.856Z,22592
2017-02-16T10:29:12.189Z,22688
2017-02-16T10:31:14.503Z,22848
2017-02-16T10:33:21.816Z,23232
2017-02-16T10:35:14.397Z,23104
2017-02-16T10:37:16.689Z,23424
2017-02-16T10:39:19.033Z,24000
2017-02-16T10:41:21.513Z,23776
2017-02-16T10:43:29.179Z,24032
2017-02-16T10:45:31.408Z,24544
2017-02-16T10:47:28.735Z,24704
2017-02-16T10:49:21.143Z,24768
2017-02-16T10:51:23.490Z,25120
2017-02-16T10:53:25.866Z,25472
2017-02-16T10:55:23.154Z,25568
2017-02-16T10:57:20.537Z,25792
2017-02-16T10:59:18.085Z,25952
2017-02-16T11:01:15.413Z,26176
2017-02-16T11:03:17.775Z,26112
2017-02-16T11:05:15.193Z,26432
2017-02-16T11:07:27.632Z,26688
2017-02-16T11:09:30.114Z,26976
2017-02-16T11:11:37.487Z,27200
2017-02-16T11:13:34.933Z,27488
2017-02-16T11:15:32.405Z,27520
2017-02-16T11:17:25.033Z,27680
2017-02-16T11:19:30.020Z,27808
2017-02-16T11:21:32.347Z,27968
2017-02-16T11:23:34.750Z,28128
2017-02-16T11:25:32.126Z,28320
2017-02-16T11:27:39.398Z,28736
2017-02-16T11:29:46.637Z,28480
2017-02-16T11:31:44.672Z,28704
2017-02-16T11:33:52.231Z,28608
2017-02-16T11:35:55.419Z,28608
2017-02-16T11:37:52.785Z,28320
2017-02-16T11:40:00.156Z,28320
2017-02-16T11:42:32.805Z,27904
2017-02-16T11:44:53.742Z,28000
2017-02-16T11:47:09.851Z,27680
2017-02-16T11:49:02.193Z,25728
2017-02-16T11:50:54.690Z,27168
2017-02-16T11:52:57.433Z,27232
2017-02-16T11:55:04.848Z,27136
2017-02-16T11:57:07.180Z,26912
2017-02-16T11:59:04.544Z,26656
2017-02-16T12:01:10.112Z,26464
2017-02-16T12:03:12.446Z,25952
2017-02-16T12:05:09.833Z,22688
2017-02-16T12:07:12.308Z,27424
2017-02-16T12:09:14.751Z,39392
2017-02-16T12:11:16.219Z,55712
2017-02-16T12:13:13.646Z,52096
2017-02-16T12:15:21.003Z,51008
2017-02-16T12:17:18.429Z,53184
2017-02-16T12:19:16.171Z,49728
2017-02-16T12:21:30.029Z,41632
2017-02-16T12:23:32.729Z,48384
2017-02-16T12:25:31.324Z,46496
2017-02-16T12:27:34.704Z,41280
2017-02-16T12:31:37.984Z,42816
2017-02-16T12:33:40.345Z,45216
2017-02-16T12:35:32.705Z,45152
2017-02-16T12:37:48.964Z,35744
2017-02-16T12:39:51.522Z,34784
2017-02-16T12:41:54.168Z,36128
2017-02-16T12:43:51.807Z,28896
2017-02-16T12:45:54.226Z,24640
2017-02-16T12:47:56.552Z,28128
2017-02-16T12:49:49.058Z,23456
2017-02-16T12:52:01.434Z,26144
2017-02-16T12:54:03.931Z,28288
2017-02-16T12:56:01.384Z,31808
2017-02-16T12:58:04.328Z,27328
2017-02-16T13:00:01.986Z,30656
2017-02-16T13:02:04.289Z,31168
2017-02-16T13:04:04.643Z,25280
2017-02-16T13:06:04.290Z,22688
2017-02-16T13:08:07.082Z,21696
2017-02-16T13:10:11.061Z,25472
2017-02-16T13:12:19.699Z,24672
2017-02-16T13:14:22.000Z,23520
2017-02-16T13:16:24.208Z,26144
2017-02-16T13:18:21.509Z,23040
2017-02-16T13:20:30.035Z,19648
2017-02-16T13:22:35.107Z,30976
2017-02-16T13:24:32.601Z,27072
2017-02-16T13:26:32.233Z,29216
2017-02-16T13:28:31.342Z,22368
2017-02-16T13:30:29.988Z,23264
2017-02-16T13:32:33.000Z,21568
2017-02-16T13:34:30.927Z,23744
2017-02-16T13:36:27.953Z,22176
2017-02-16T13:38:36.864Z,28224
2017-02-16T13:40:45.250Z,27232
2017-02-16T13:42:54.640Z,26304
2017-02-16T13:45:03.710Z,26880
2017-02-16T13:47:13.032Z,33184
2017-02-16T13:49:15.437Z,28800
2017-02-16T13:51:19.104Z,32992
2017-02-16T13:53:29.813Z,30016
2017-02-16T13:55:22.192Z,32064
2017-02-16T13:57:19.535Z,33280
2017-02-16T13:59:11.920Z,30048
2017-02-16T14:00:59.408Z,30240
2017-02-16T14:02:51.865Z,29856
2017-02-16T14:05:04.158Z,30464
2017-02-16T14:07:11.519Z,30400
2017-02-16T14:09:18.845Z,29376
2017-02-16T14:11:31.057Z,29728
2017-02-16T14:13:33.493Z,28704
2017-02-16T14:15:30.966Z,26752
2017-02-16T14:17:23.336Z,26784
2017-02-16T14:19:25.804Z,26080
2017-02-16T14:21:23.182Z,26272
2017-02-16T14:23:20.605Z,26560
2017-02-16T14:25:07.976Z,25120
2017-02-16T14:27:15.442Z,23296
2017-02-16T14:29:18.024Z,21920
2017-02-16T14:31:25.330Z,20672
2017-02-16T14:33:27.651Z,20192
2017-02-16T14:35:25.175Z,19712
2017-02-16T14:37:22.586Z,19072
2017-02-16T14:39:24.970Z,18304
2017-02-16T14:41:27.895Z,16864
2017-02-16T14:43:30.478Z,16320
2017-02-16T14:45:32.812Z,15904
2017-02-16T14:47:35.344Z,16096
2017-02-16T14:49:43.078Z,15200
2017-02-16T14:51:45.712Z,14368
2017-02-16T14:53:42.926Z,13600
2017-02-16T14:55:40.210Z,13056
2017-02-16T14:57:22.659Z,12256
2017-02-16T14:59:20.016Z,11872
2017-02-16T15:01:32.304Z,11744
2017-02-16T15:03:39.756Z,12128
2017-02-16T15:05:37.088Z,11872
2017-02-16T15:07:39.285Z,11776
2017-02-16T15:09:46.834Z,10984
2017-02-16T15:11:34.858Z,9996
2017-02-16T15:14:02.083Z,9288
2017-02-16T15:16:44.613Z,8500
2017-02-16T15:19:37.332Z,9220
2017-02-16T15:22:32.780Z,8708
2017-02-16T15:25:28.939Z,7424
2017-02-16T15:28:28.105Z,7096
2017-02-16T15:31:25.038Z,5644
2017-02-16T15:34:24.891Z,4396
2017-02-16T15:37:19.614Z,3536
2017-02-16T15:40:15.341Z,3452
2017-02-16T15:43:17.707Z,3376
2017-02-16T15:46:02.986Z,2392
2017-02-16T15:48:19.773Z,2188
2017-02-16T15:50:14.620Z,2072
2017-02-16T15:52:07.162Z,1988
2017-02-16T15:54:10.434Z,2224
2017-02-16T15:56:17.851Z,2608
2017-02-16T15:58:20.252Z,2260
2017-02-16T16:00:22.592Z,2412
2017-02-16T16:02:19.977Z,2276
2017-02-16T16:04:22.215Z,2700
2017-02-16T16:06:29.723Z,2528
2017-02-16T16:08:32.148Z,2304
2017-02-16T16:10:38.125Z,2052
2017-02-16T16:12:35.428Z,1820
2017-02-16T16:14:37.862Z,1600
2017-02-16T16:16:50.164Z,1348
2017-02-16T16:18:47.461Z,1148
2017-02-16T16:20:44.734Z,972
2017-02-16T16:22:32.062Z,828
2017-02-16T16:24:39.343Z,696
2017-02-16T16:26:52.607Z,576
2017-02-16T16:28:44.967Z,484
2017-02-16T16:30:37.245Z,416
2017-02-16T16:32:39.593Z,348
2017-02-16T16:34:36.838Z,292
2017-02-16T16:36:29.123Z,252
2017-02-16T16:38:31.625Z,204
2017-02-16T16:40:34.109Z,168
2017-02-16T16:42:46.911Z,132
2017-02-16T16:44:39.449Z,104
2017-02-16T16:46:26.961Z,76
2017-02-16T16:48:34.261Z,60
2017-02-16T16:50:31.595Z,40
2017-02-16T16:52:24.019Z,32
2017-02-16T16:54:21.371Z,24
2017-02-16T16:56:18.655Z,16
2017-02-16T16:58:11.268Z,12
2017-02-16T16:59:58.582Z,8
2017-02-16T17:01:56.004Z,4
2017-02-16T17:03:53.273Z,4
2017-02-16T17:05:50.762Z,4
2017-02-16T17:07:53.091Z,0
2017-02-16T17:10:05.396Z,0
2017-02-16T17:12:02.867Z,0
2017-02-16T17:14:15.159Z,0
2017-02-16T17:16:22.517Z,0
2017-02-16T17:18:24.796Z,0
2017-02-16T17:20:17.233Z,0
2017-02-16T17:22:09.665Z,0
2017-02-16T17:24:01.935Z,0
2017-02-16T17:25:54.411Z,0
2017-02-16T17:27:56.770Z,0
2017-02-16T17:29:59.615Z,0
2017-02-16T17:32:07.068Z,0
2017-02-16T17:34:09.430Z,0
2017-02-16T17:36:06.937Z,0
2017-02-16T17:38:04.282Z,0
2017-02-16T17:40:06.619Z,0
2017-02-16T17:42:04.071Z,0
2017-02-16T17:44:06.419Z,0
2017-02-16T17:46:18.630Z,0
2017-02-16T17:48:15.883Z,0
2017-02-16T17:50:08.388Z,0
2017-02-16T17:52:05.856Z,0
2017-02-16T17:54:13.683Z,0
2017-02-16T17:56:16.143Z,0
2017-02-16T17:58:08.747Z,0
2017-02-16T18:00:06.096Z,0
2017-02-16T18:02:14.571Z,0
2017-02-16T18:04:12.146Z,0
2017-02-16T18:05:59.525Z,0
2017-02-16T18:07:51.820Z,0
2017-02-16T18:10:04.091Z,0
2017-02-16T18:11:46.627Z,0
2017-02-16T18:13:43.957Z,0
2017-02-16T18:15:41.399Z,0
2017-02-16T18:17:34.903Z,0
2017-02-16T18:19:43.895Z,0
2017-02-16T18:21:46.468Z,0
2017-02-16T18:23:48.827Z,0
2017-02-16T18:25:51.101Z,0
2017-02-16T18:27:48.387Z,0
2017-02-16T18:29:50.807Z,0
2017-02-16T18:31:53.974Z,0
2017-02-16T18:33:56.483Z,0
2017-02-16T18:36:03.953Z,0
2017-02-16T18:38:06.420Z,0
2017-02-16T18:40:13.998Z,0
2017-02-16T18:42:06.371Z,0
2017-02-16T18:43:53.955Z,0
2017-02-16T18:45:56.562Z,0
2017-02-16T18:47:49.198Z,0
2017-02-16T18:49:41.700Z,0
2017-02-16T18:51:44.075Z,0
2017-02-16T18:53:51.630Z,0
2017-02-16T18:56:04.195Z,0
2017-02-16T18:57:56.590Z,0
2017-02-16T18:59:58.885Z,0
2017-02-16T19:02:06.265Z,0
2017-02-16T19:04:08.936Z,0
2017-02-16T19:05:56.215Z,0
2017-02-16T19:07:58.816Z,0
2017-02-16T19:10:01.358Z,0
2017-02-16T19:11:58.809Z,0
2017-02-16T19:14:06.247Z,0
2017-02-16T19:16:08.607Z,0
2017-02-16T19:18:10.838Z,0
2017-02-16T19:20:18.124Z,0
2017-02-16T19:22:05.481Z,0
2017-02-16T19:24:12.875Z,0
2017-02-16T19:26:15.175Z,0
2017-02-16T19:28:17.577Z,0
2017-02-16T19:30:05.053Z,0
2017-02-16T19:32:02.495Z,0
2017-02-16T19:33:44.879Z,0
2017-02-16T19:35:47.278Z,0
2017-02-16T19:37:49.694Z,0
2017-02-16T19:39:57.086Z,0
2017-02-16T19:42:04.505Z,0
2017-02-16T19:44:06.903Z,0
2017-02-16T19:46:04.254Z,0
2017-02-16T19:48:06.899Z,0
2017-02-16T19:50:09.264Z,0
2017-02-16T19:52:11.894Z,0
2017-02-16T19:54:09.455Z,0
2017-02-16T19:56:01.977Z,0
2017-02-16T19:57:59.415Z,0
2017-02-16T19:59:56.814Z,0
2017-02-16T20:01:54.238Z,0
2017-02-16T20:04:01.609Z,0
2017-02-16T20:05:49.101Z,0
2017-02-16T20:07:51.541Z,0
2017-02-16T20:09:54.019Z,0
2017-02-16T20:11:56.403Z,0
2017-02-16T20:14:03.821Z,0
2017-02-16T20:16:11.117Z,0
2017-02-16T20:18:18.725Z,0
2017-02-16T20:20:16.047Z,0
2017-02-16T20:22:18.575Z,0
2017-02-16T20:24:20.872Z,0
2017-02-16T20:26:23.700Z,0
2017-02-16T20:28:21.337Z,0
2017-02-16T20:30:08.790Z,0
2017-02-16T20:31:56.324Z,0
2017-02-16T20:33:58.778Z,0
2017-02-16T20:35:51.290Z,0
2017-02-16T20:37:59.032Z,0
2017-02-16T20:40:01.592Z,0
2017-02-16T20:41:59.230Z,0
2017-02-16T20:44:06.834Z,0
2017-02-16T20:46:09.415Z,0
2017-02-16T20:48:06.916Z,0
2017-02-16T20:49:59.464Z,0
2017-02-16T20:52:06.912Z,0
2017-02-16T20:54:09.210Z,0
2017-02-16T20:56:12.018Z,0
2017-02-16T20:58:06.898Z,0
2017-02-16T21:00:04.294Z,0
2017-02-16T21:02:06.958Z,0
2017-02-16T21:04:09.502Z,0
2017-02-16T21:06:22.339Z,0
2017-02-16T21:08:29.927Z,0
2017-02-16T21:10:32.619Z,0
2017-02-16T21:12:35.422Z,0
2017-02-16T21:14:42.987Z,0
2017-02-16T21:16:40.507Z,0
2017-02-16T21:18:28.088Z,0
2017-02-16T21:20:25.476Z,0
2017-02-16T21:22:27.873Z,0
2017-02-16T21:24:25.498Z,0
2017-02-16T21:26:17.896Z,0
2017-02-16T21:28:20.567Z,0
2017-02-16T21:30:23.155Z,0
2017-02-16T21:32:30.858Z,0
2017-02-16T21:34:28.228Z,0
2017-02-16T21:36:35.855Z,0
2017-02-16T21:38:38.448Z,0
2017-02-16T21:40:41.201Z,0
2017-02-16T21:42:53.960Z,0
2017-02-16T21:44:56.314Z,0
2017-02-16T21:46:53.722Z,0
2017-02-16T21:48:56.110Z,0
2017-02-16T21:51:03.549Z,0
2017-02-16T21:52:56.031Z,0
2017-02-16T21:54:58.527Z,0
2017-02-16T21:56:53.849Z,0
2017-02-16T21:58:56.263Z,0
2017-02-16T22:00:58.810Z,0
2017-02-16T22:03:11.319Z,0
2017-02-16T22:05:13.758Z,0
2017-02-16T22:07:06.119Z,0
2017-02-16T22:08:53.671Z,0
2017-02-16T22:10:56.110Z,0
2017-02-16T22:12:48.568Z,0
2017-02-16T22:14:56.078Z,0
2017-02-16T22:17:03.573Z,0
2017-02-16T22:19:01.080Z,0
2017-02-16T22:20:53.581Z,0
2017-02-16T22:23:00.872Z,0
2017-02-16T22:25:13.522Z,0
2017-02-16T22:27:16.110Z,0
2017-02-16T22:29:38.874Z,0
2017-02-16T22:31:44.909Z,0
2017-02-16T22:33:57.416Z,0
2017-02-16T22:35:55.763Z,0
2017-02-16T22:38:09.603Z,0
2017-02-16T22:40:22.014Z,0
2017-02-16T22:42:23.258Z,0
2017-02-16T22:44:35.457Z,0
2017-02-16T22:46:47.695Z,0
2017-02-16T22:49:00.183Z,0
2017-02-16T22:51:10.563Z,0
2017-02-16T22:53:17.881Z,0
2017-02-16T22:55:10.406Z,0
2017-02-16T22:57:12.717Z,0
2017-02-16T22:59:05.118Z,0
2017-02-16T23:01:02.535Z,0
2017-02-16T23:03:04.815Z,0
2017-02-16T23:05:12.228Z,0
2017-02-16T23:07:09.529Z,0
2017-02-16T23:09:01.930Z,0
2017-02-16T23:10:54.216Z,0
2017-02-16T23:12:56.496Z,0
2017-02-16T23:14:58.936Z,0
2017-02-16T23:17:08.915Z,0
2017-02-16T23:19:21.947Z,0
2017-02-16T23:21:14.872Z,0
2017-02-16T23:23:22.640Z,0
2017-02-16T23:25:25.292Z,0
2017-02-16T23:27:28.280Z,0
2017-02-16T23:29:35.786Z,0
2017-02-16T23:31:28.253Z,0
2017-02-16T23:33:25.718Z,0
2017-02-16T23:35:28.078Z,0
2017-02-16T23:37:25.415Z,0
2017-02-16T23:39:22.842Z,0
2017-02-16T23:41:25.224Z,0
2017-02-16T23:43:27.611Z,0
2017-02-16T23:45:20.008Z,0
2017-02-16T23:47:17.328Z,0
2017-02-16T23:49:24.631Z,0
2017-02-16T23:51:22.198Z,0
2017-02-16T23:53:19.561Z,0
2017-02-16T23:55:17.115Z,0
2017-02-16T23:57:14.629Z,0
2017-02-16T23:59:11.991Z,0
